createdAt,value
2022-09-12T00:01:14.914Z,14.09
2022-09-12T00:03:41.573Z,14.17
2022-09-12T00:06:09.558Z,14.15
2022-09-12T00:08:36.076Z,13.90
2022-09-12T00:11:05.282Z,13.85
2022-09-12T00:13:31.588Z,13.94
2022-09-12T00:15:57.890Z,14.05
2022-09-12T00:18:24.226Z,14.27
2022-09-12T00:20:50.563Z,14.34
2022-09-12T00:23:16.856Z,14.23
2022-09-12T00:25:46.986Z,14.15
2022-09-12T00:28:14.457Z,14.09
2022-09-12T00:30:41.831Z,14.11
2022-09-12T00:33:08.698Z,13.95
2022-09-12T00:35:35.164Z,13.75
2022-09-12T00:38:01.472Z,13.88
2022-09-12T00:40:28.496Z,13.73
2022-09-12T00:42:54.781Z,13.67
2022-09-12T00:45:24.310Z,13.41
2022-09-12T00:47:50.709Z,13.48
2022-09-12T00:50:17.585Z,13.26
2022-09-12T00:52:50.282Z,13.25
2022-09-12T00:55:19.403Z,13.18
2022-09-12T00:57:50.983Z,13.23
2022-09-12T01:00:19.440Z,13.12
2022-09-12T01:02:50.756Z,13.18
2022-09-12T01:05:17.648Z,13.06
2022-09-12T01:07:44.651Z,13.08
2022-09-12T01:10:11.414Z,13.00
2022-09-12T01:12:39.136Z,12.97
2022-09-12T01:15:05.733Z,13.11
2022-09-12T01:17:40.238Z,12.97
2022-09-12T01:20:07.015Z,13.05
2022-09-12T01:22:56.286Z,12.87
2022-09-12T01:25:31.568Z,12.82
2022-09-12T01:28:16.568Z,12.90
2022-09-12T01:30:42.921Z,13.13
2022-09-12T01:33:18.625Z,12.89
2022-09-12T01:35:51.486Z,13.26
2022-09-12T01:38:23.590Z,13.44
2022-09-12T01:40:53.145Z,13.56
2022-09-12T01:43:27.054Z,13.59
2022-09-12T01:45:58.399Z,13.71
2022-09-12T01:48:29.458Z,13.73
2022-09-12T01:51:00.190Z,13.71
2022-09-12T01:53:27.986Z,13.68
2022-09-12T01:56:01.063Z,13.68
2022-09-12T01:58:30.323Z,13.70
2022-09-12T02:01:02.780Z,13.63
2022-09-12T02:03:34.905Z,13.68
2022-09-12T02:06:05.864Z,13.55
2022-09-12T02:08:35.420Z,13.43
2022-09-12T02:11:01.703Z,13.49
2022-09-12T02:13:33.833Z,13.56
2022-09-12T02:16:10.582Z,13.58
2022-09-12T02:18:39.844Z,13.45
2022-09-12T02:21:06.634Z,13.46
2022-09-12T02:23:34.686Z,13.15
2022-09-12T02:26:04.495Z,13.09
2022-09-12T02:28:33.476Z,13.07
2022-09-12T02:31:18.456Z,13.08
2022-09-12T02:33:57.042Z,12.92
2022-09-12T02:36:34.531Z,12.95
2022-09-12T02:39:00.854Z,13.17
2022-09-12T02:41:27.321Z,13.42
2022-09-12T02:43:53.736Z,13.64
2022-09-12T02:46:22.718Z,13.49
2022-09-12T02:48:49.012Z,13.44
2022-09-12T02:51:19.230Z,13.09
2022-09-12T02:53:47.862Z,13.03
2022-09-12T02:56:18.286Z,12.80
2022-09-12T02:58:45.135Z,12.58
2022-09-12T03:01:23.941Z,12.65
2022-09-12T03:03:50.229Z,12.61
2022-09-12T03:06:20.810Z,12.60
2022-09-12T03:09:10.148Z,12.66
2022-09-12T03:11:39.438Z,12.56
2022-09-12T03:14:15.653Z,12.51
2022-09-12T03:16:53.550Z,12.47
2022-09-12T03:19:32.004Z,12.41
2022-09-12T03:22:04.290Z,12.42
2022-09-12T03:24:38.032Z,12.36
2022-09-12T03:27:04.294Z,12.33
2022-09-12T03:29:31.430Z,12.35
2022-09-12T03:31:58.487Z,12.45
2022-09-12T03:34:26.331Z,12.34
2022-09-12T03:36:55.349Z,12.27
2022-09-12T03:39:24.197Z,12.43
2022-09-12T03:41:50.856Z,12.29
2022-09-12T03:44:17.613Z,12.40
2022-09-12T03:46:44.235Z,12.82
2022-09-12T03:49:10.827Z,13.11
2022-09-12T03:51:37.482Z,13.20
2022-09-12T03:54:04.039Z,13.25
2022-09-12T03:56:30.546Z,13.26
2022-09-12T03:58:57.379Z,13.25
2022-09-12T04:01:24.231Z,13.27
2022-09-12T04:03:51.660Z,13.20
2022-09-12T04:06:21.969Z,13.19
2022-09-12T04:08:50.417Z,13.13
2022-09-12T04:11:17.494Z,13.11
2022-09-12T04:13:44.564Z,13.10
2022-09-12T04:16:11.767Z,13.07
2022-09-12T04:18:38.637Z,13.02
2022-09-12T04:21:09.810Z,13.03
2022-09-12T04:23:36.241Z,13.01
2022-09-12T04:26:03.232Z,13.01
2022-09-12T04:28:29.971Z,13.01
2022-09-12T04:30:56.369Z,12.98
2022-09-12T04:33:24.487Z,12.95
2022-09-12T04:35:50.789Z,12.90
2022-09-12T04:38:17.441Z,12.78
2022-09-12T04:40:43.739Z,12.76
2022-09-12T04:43:14.204Z,12.73
2022-09-12T04:45:40.972Z,12.67
2022-09-12T04:48:07.284Z,12.72
2022-09-12T04:50:33.570Z,12.75
2022-09-12T04:52:59.891Z,12.72
2022-09-12T04:55:26.252Z,12.72
2022-09-12T04:57:52.973Z,12.62
2022-09-12T05:00:19.545Z,12.65
2022-09-12T05:02:46.381Z,12.53
2022-09-12T05:05:12.665Z,12.59
2022-09-12T05:07:42.023Z,12.56
2022-09-12T05:10:08.836Z,12.55
2022-09-12T05:12:36.006Z,12.51
2022-09-12T05:15:02.374Z,12.51
2022-09-12T05:17:29.616Z,12.55
2022-09-12T05:19:56.023Z,12.49
2022-09-12T05:22:22.784Z,12.48
2022-09-12T05:24:50.650Z,12.35
2022-09-12T05:27:17.120Z,12.33
2022-09-12T05:29:43.435Z,12.32
2022-09-12T05:32:09.792Z,12.32
2022-09-12T05:34:37.885Z,12.25
2022-09-12T05:37:04.279Z,12.12
2022-09-12T05:39:30.575Z,12.14
2022-09-12T05:41:56.857Z,12.02
2022-09-12T05:44:23.192Z,11.92
2022-09-12T05:46:51.255Z,11.84
2022-09-12T05:49:17.574Z,11.85
2022-09-12T05:51:44.992Z,11.96
2022-09-12T05:54:12.765Z,11.86
2022-09-12T05:56:40.297Z,11.83
2022-09-12T05:59:08.273Z,12.07
2022-09-12T06:01:35.073Z,12.10
2022-09-12T06:04:02.385Z,12.09
2022-09-12T06:06:29.799Z,12.20
2022-09-12T06:08:57.512Z,12.39
2022-09-12T06:11:28.686Z,12.41
2022-09-12T06:13:55.744Z,12.45
2022-09-12T06:16:23.240Z,12.61
2022-09-12T06:18:50.429Z,12.81
2022-09-12T06:21:16.785Z,12.82
2022-09-12T06:23:44.305Z,12.87
2022-09-12T06:26:10.672Z,12.80
2022-09-12T06:28:38.339Z,12.86
2022-09-12T06:31:12.395Z,12.99
2022-09-12T06:33:40.739Z,12.78
2022-09-12T06:36:12.494Z,12.77
2022-09-12T06:38:39.753Z,12.76
2022-09-12T06:41:07.583Z,12.68
2022-09-12T06:43:34.063Z,12.75
2022-09-12T06:46:00.698Z,12.80
2022-09-12T06:48:27.689Z,12.87
2022-09-12T06:50:58.477Z,12.84
2022-09-12T06:53:25.670Z,12.74
2022-09-12T06:55:58.837Z,12.78
2022-09-12T06:58:25.557Z,12.92
2022-09-12T07:00:56.013Z,12.82
2022-09-12T07:03:24.848Z,12.72
2022-09-12T07:05:51.131Z,12.74
2022-09-12T07:08:17.413Z,12.71
2022-09-12T07:10:43.856Z,12.83
2022-09-12T07:13:10.265Z,12.69
2022-09-12T07:15:36.618Z,12.73
2022-09-12T07:18:03.827Z,12.91
2022-09-12T07:20:32.867Z,12.92
2022-09-12T07:22:59.947Z,13.00
2022-09-12T07:25:26.699Z,12.94
2022-09-12T07:27:53.531Z,13.18
2022-09-12T07:30:19.914Z,13.21
2022-09-12T07:32:46.283Z,13.29
2022-09-12T07:35:12.816Z,13.31
2022-09-12T07:37:39.101Z,13.68
2022-09-12T07:40:05.669Z,13.73
2022-09-12T07:42:32.146Z,13.63
2022-09-12T07:44:58.540Z,13.86
2022-09-12T07:47:24.825Z,13.80
2022-09-12T07:49:52.813Z,13.99
2022-09-12T07:52:19.184Z,13.61
2022-09-12T07:54:45.484Z,13.73
2022-09-12T07:57:11.801Z,14.05
2022-09-12T07:59:52.398Z,14.28
2022-09-12T08:02:20.092Z,14.44
2022-09-12T08:04:49.913Z,14.51
2022-09-12T08:07:18.187Z,14.66
2022-09-12T08:09:44.710Z,14.68
2022-09-12T08:12:11.042Z,14.78
2022-09-12T08:14:37.308Z,14.84
2022-09-12T08:17:03.636Z,14.86
2022-09-12T08:19:30.025Z,14.93
2022-09-12T08:21:56.310Z,14.99
2022-09-12T08:24:22.694Z,15.05
2022-09-12T08:26:49.225Z,15.11
2022-09-12T08:29:15.523Z,15.17
2022-09-12T08:31:42.493Z,15.25
2022-09-12T08:34:08.852Z,15.30
2022-09-12T08:36:35.572Z,15.27
2022-09-12T08:39:04.526Z,15.21
2022-09-12T08:41:34.699Z,15.32
2022-09-12T08:44:04.024Z,15.35
2022-09-12T08:46:57.140Z,15.43
2022-09-12T08:49:27.982Z,15.41
2022-09-12T08:51:55.594Z,15.38
2022-09-12T08:54:25.040Z,15.33
2022-09-12T08:56:56.423Z,15.43
2022-09-12T08:59:22.713Z,15.39
2022-09-12T09:01:53.766Z,15.43
2022-09-12T09:04:43.855Z,15.43
2022-09-12T09:07:19.391Z,15.48
2022-09-12T09:09:59.103Z,15.55
2022-09-12T09:12:45.681Z,15.75
2022-09-12T09:15:35.534Z,15.84
2022-09-12T09:18:06.393Z,15.91
2022-09-12T09:20:36.557Z,15.80
2022-09-12T09:23:05.690Z,15.67
2022-09-12T09:25:41.292Z,15.81
2022-09-12T09:28:14.113Z,15.83
2022-09-12T09:30:42.580Z,15.82
2022-09-12T09:33:15.458Z,15.88
2022-09-12T09:35:45.893Z,15.96
2022-09-12T09:38:22.274Z,16.00
2022-09-12T09:40:58.000Z,16.19
2022-09-12T09:43:27.400Z,16.25
2022-09-12T09:45:54.171Z,16.34
2022-09-12T09:48:23.384Z,16.39
2022-09-12T09:50:50.365Z,16.45
2022-09-12T09:53:29.512Z,16.50
2022-09-12T09:55:56.661Z,16.53
2022-09-12T09:58:29.947Z,16.56
2022-09-12T10:01:00.924Z,16.66
2022-09-12T10:03:31.627Z,16.60
2022-09-12T10:06:02.545Z,16.59
2022-09-12T10:08:30.858Z,16.56
2022-09-12T10:11:03.460Z,16.63
2022-09-12T10:13:36.036Z,16.60
2022-09-12T10:16:05.420Z,16.69
2022-09-12T10:18:35.011Z,16.70
2022-09-12T10:21:01.717Z,16.41
2022-09-12T10:23:32.549Z,16.54
2022-09-12T10:26:00.742Z,16.51
2022-09-12T10:28:41.052Z,16.61
2022-09-12T10:31:09.143Z,16.49
2022-09-12T10:33:41.420Z,16.55
2022-09-12T10:36:07.846Z,16.49
2022-09-12T10:38:34.405Z,16.51
2022-09-12T10:41:03.524Z,16.31
2022-09-12T10:43:29.829Z,16.30
2022-09-12T10:46:19.243Z,16.46
2022-09-12T10:48:49.749Z,16.57
2022-09-12T10:51:22.113Z,16.61
2022-09-12T10:53:48.649Z,16.71
2022-09-12T10:56:25.855Z,16.54
2022-09-12T10:59:04.091Z,16.44
2022-09-12T11:01:38.152Z,16.59
2022-09-12T11:04:23.349Z,16.63
2022-09-12T11:06:58.475Z,16.54
2022-09-12T11:09:31.853Z,16.62
2022-09-12T11:12:13.435Z,16.62
2022-09-12T11:14:55.164Z,16.64
2022-09-12T11:17:21.523Z,16.73
2022-09-12T11:19:57.146Z,16.43
2022-09-12T11:22:35.421Z,15.66
2022-09-12T11:25:05.081Z,16.27
2022-09-12T11:27:37.290Z,16.41
2022-09-12T11:30:14.817Z,16.56
2022-09-12T11:33:00.277Z,16.71
2022-09-12T11:35:30.365Z,16.81
2022-09-12T11:37:56.626Z,16.87
2022-09-12T11:40:27.736Z,16.86
2022-09-12T11:42:59.335Z,16.95
2022-09-12T11:45:28.441Z,17.02
2022-09-12T11:47:57.948Z,17.09
2022-09-12T11:50:33.488Z,17.10
2022-09-12T11:53:14.853Z,17.10
2022-09-12T11:56:10.221Z,17.15
2022-09-12T11:58:37.278Z,17.25
2022-09-12T12:01:16.048Z,17.29
2022-09-12T12:03:44.033Z,17.29
2022-09-12T12:06:19.403Z,17.41
2022-09-12T12:08:46.606Z,17.34
2022-09-12T12:11:14.942Z,17.34
2022-09-12T12:13:43.126Z,17.30
2022-09-12T12:16:24.499Z,17.30
2022-09-12T12:18:55.994Z,17.38
2022-09-12T12:21:41.054Z,17.30
2022-09-12T12:24:07.317Z,17.24
2022-09-12T12:26:39.883Z,17.25
2022-09-12T12:29:18.419Z,17.31
2022-09-12T12:32:03.431Z,17.05
2022-09-12T12:34:31.336Z,17.10
2022-09-12T12:36:59.058Z,17.14
2022-09-12T12:39:31.513Z,17.19
2022-09-12T12:42:00.919Z,17.23
2022-09-12T12:44:42.545Z,17.20
2022-09-12T12:47:20.133Z,17.23
2022-09-12T12:49:51.904Z,17.27
2022-09-12T12:52:19.352Z,17.37
2022-09-12T12:54:45.911Z,17.33
2022-09-12T12:57:15.021Z,17.39
2022-09-12T12:59:49.227Z,17.29
2022-09-12T13:02:42.228Z,17.44
2022-09-12T13:05:19.840Z,17.39
2022-09-12T13:07:48.197Z,17.43
2022-09-12T13:10:29.205Z,17.48
2022-09-12T13:13:01.407Z,17.50
2022-09-12T13:15:36.742Z,17.52
2022-09-12T13:18:05.794Z,17.57
2022-09-12T13:20:33.964Z,17.62
2022-09-12T13:23:00.457Z,17.65
2022-09-12T13:25:26.807Z,17.68
2022-09-12T13:27:57.032Z,17.71
2022-09-12T13:30:23.490Z,17.75
2022-09-12T13:32:49.915Z,17.77
2022-09-12T13:35:35.539Z,17.78
2022-09-12T13:38:20.175Z,17.80
2022-09-12T13:40:52.721Z,17.82
2022-09-12T13:43:24.556Z,17.82
2022-09-12T13:45:52.628Z,17.83
2022-09-12T13:48:21.891Z,17.84
2022-09-12T13:50:48.166Z,17.87
2022-09-12T13:53:16.914Z,17.99
2022-09-12T13:55:47.291Z,17.99
2022-09-12T13:58:13.604Z,17.88
2022-09-12T14:00:40.004Z,17.82
2022-09-12T14:03:42.866Z,17.77
2022-09-12T14:06:09.221Z,17.80
2022-09-12T14:08:39.897Z,17.74
2022-09-12T14:11:16.556Z,17.80
2022-09-12T14:13:42.890Z,17.75
2022-09-12T14:16:11.290Z,17.70
2022-09-12T14:18:38.629Z,17.67
2022-09-12T14:21:15.302Z,17.68
2022-09-12T14:23:42.729Z,17.66
2022-09-12T14:26:12.235Z,17.63
2022-09-12T14:28:42.325Z,17.61
2022-09-12T14:31:15.663Z,17.56
2022-09-12T14:33:48.532Z,15.56
2022-09-12T14:36:30.303Z,16.92
2022-09-12T14:38:59.887Z,17.15
2022-09-12T14:41:29.528Z,17.20
2022-09-12T14:43:58.439Z,17.29
2022-09-12T14:46:28.403Z,17.37
2022-09-12T14:49:01.014Z,16.93
2022-09-12T14:51:30.985Z,17.29
2022-09-12T14:53:58.347Z,17.37
2022-09-12T14:56:37.697Z,17.42
2022-09-12T14:59:39.817Z,17.50
2022-09-12T15:02:19.082Z,17.57
2022-09-12T15:05:05.432Z,17.61
2022-09-12T15:07:55.210Z,17.63
2022-09-12T15:10:32.943Z,17.71
2022-09-12T15:13:08.334Z,17.70
2022-09-12T15:15:37.028Z,17.73
2022-09-12T15:18:06.632Z,17.71
2022-09-12T15:20:33.871Z,17.74
2022-09-12T15:23:00.194Z,17.73
2022-09-12T15:25:26.690Z,17.77
2022-09-12T15:27:54.245Z,17.78
2022-09-12T15:30:20.533Z,17.78
2022-09-12T15:32:47.000Z,17.79
2022-09-12T15:35:17.952Z,17.76
2022-09-12T15:37:44.566Z,17.79
2022-09-12T15:40:13.842Z,17.76
2022-09-12T15:42:40.725Z,17.71
2022-09-12T15:45:17.309Z,17.71
2022-09-12T15:47:43.673Z,17.76
2022-09-12T15:50:10.992Z,17.72
2022-09-12T15:52:37.297Z,17.65
2022-09-12T15:55:04.879Z,17.71
2022-09-12T15:57:31.249Z,17.63
2022-09-12T15:59:57.542Z,17.60
2022-09-12T16:02:23.860Z,17.51
2022-09-12T16:04:51.718Z,17.46
2022-09-12T16:07:18.004Z,17.37
2022-09-12T16:09:44.372Z,17.29
2022-09-12T16:12:10.661Z,17.27
2022-09-12T16:14:37.073Z,17.23
2022-09-12T16:17:05.154Z,17.11
2022-09-12T16:19:31.554Z,17.11
2022-09-12T16:21:57.866Z,17.10
2022-09-12T16:24:24.151Z,17.00
2022-09-12T16:26:50.451Z,16.95
2022-09-12T16:29:16.917Z,16.88
2022-09-12T16:31:43.290Z,16.85
2022-09-12T16:34:10.876Z,16.79
2022-09-12T16:36:37.210Z,16.66
2022-09-12T16:39:03.718Z,16.75
2022-09-12T16:41:30.111Z,16.69
2022-09-12T16:43:56.445Z,16.63
2022-09-12T16:46:24.264Z,16.66
2022-09-12T16:48:52.641Z,16.64
2022-09-12T16:51:21.111Z,16.60
2022-09-12T16:53:47.475Z,16.61
2022-09-12T16:56:14.335Z,16.64
2022-09-12T16:58:42.172Z,16.71
2022-09-12T17:01:12.831Z,16.68
2022-09-12T17:03:39.555Z,16.73
2022-09-12T17:06:10.572Z,16.81
2022-09-12T17:08:38.774Z,16.81
2022-09-12T17:11:09.772Z,16.85
2022-09-12T17:13:53.276Z,16.87
2022-09-12T17:16:23.626Z,16.85
2022-09-12T17:18:51.714Z,16.99
2022-09-12T17:21:18.436Z,16.97
2022-09-12T17:23:45.046Z,17.07
2022-09-12T17:26:12.057Z,17.01
2022-09-12T17:28:39.142Z,17.07
2022-09-12T17:31:06.908Z,17.10
2022-09-12T17:33:33.491Z,17.08
2022-09-12T17:36:00.622Z,17.03
2022-09-12T17:38:27.657Z,16.97
2022-09-12T17:40:59.773Z,16.92
2022-09-12T17:43:26.406Z,16.88
2022-09-12T17:45:57.176Z,16.82
2022-09-12T17:48:23.766Z,16.77
2022-09-12T17:50:50.611Z,16.74
2022-09-12T17:53:18.761Z,16.66
2022-09-12T17:55:45.084Z,16.65
2022-09-12T17:58:11.824Z,16.58
2022-09-12T18:00:56.546Z,16.54
2022-09-12T18:03:23.848Z,16.43
2022-09-12T18:05:53.976Z,16.41
2022-09-12T18:08:21.238Z,16.35
2022-09-12T18:10:48.094Z,16.31
2022-09-12T18:13:14.492Z,16.24
2022-09-12T18:15:40.857Z,16.17
2022-09-12T18:18:07.234Z,16.08
2022-09-12T18:20:33.557Z,16.01
2022-09-12T18:22:59.887Z,15.99
2022-09-12T18:25:26.301Z,15.92
2022-09-12T18:27:52.624Z,15.83
2022-09-12T18:30:22.081Z,15.81
2022-09-12T18:32:48.736Z,15.72
2022-09-12T18:35:15.202Z,15.71
2022-09-12T18:37:41.975Z,15.61
2022-09-12T18:40:09.154Z,15.63
2022-09-12T18:42:35.659Z,15.53
2022-09-12T18:45:02.769Z,15.53
2022-09-12T18:47:29.067Z,15.54
2022-09-12T18:49:55.360Z,15.42
2022-09-12T18:52:22.116Z,15.35
2022-09-12T18:54:48.379Z,15.35
2022-09-12T18:57:14.712Z,15.33
2022-09-12T18:59:41.075Z,15.31
2022-09-12T19:02:07.425Z,15.29
2022-09-12T19:04:33.837Z,15.26
2022-09-12T19:07:01.030Z,15.26
2022-09-12T19:09:27.350Z,15.25
2022-09-12T19:11:53.678Z,15.16
2022-09-12T19:14:22.669Z,15.13
2022-09-12T19:16:50.676Z,15.10
2022-09-12T19:19:16.977Z,15.05
2022-09-12T19:21:43.756Z,15.07
2022-09-12T19:24:10.786Z,15.03
2022-09-12T19:26:38.119Z,15.00
2022-09-12T19:29:04.702Z,14.98
2022-09-12T19:31:31.966Z,14.96
2022-09-12T19:34:05.703Z,14.94
2022-09-12T19:36:47.777Z,14.92
2022-09-12T19:39:14.979Z,14.87
2022-09-12T19:41:41.353Z,14.84
2022-09-12T19:44:07.793Z,14.76
2022-09-12T19:46:34.254Z,14.73
2022-09-12T19:49:00.683Z,14.69
2022-09-12T19:51:27.083Z,14.72
2022-09-12T19:53:53.497Z,14.67
2022-09-12T19:56:19.932Z,14.65
2022-09-12T19:58:49.067Z,14.64
2022-09-12T20:01:18.830Z,14.60
2022-09-12T20:03:45.911Z,14.54
2022-09-12T20:06:13.572Z,14.45
2022-09-12T20:08:42.083Z,14.47
2022-09-12T20:11:08.899Z,14.52
2022-09-12T20:13:35.461Z,14.48
2022-09-12T20:16:12.097Z,14.42
2022-09-12T20:18:38.762Z,14.32
2022-09-12T20:21:12.096Z,14.27
2022-09-12T20:23:39.276Z,14.30
2022-09-12T20:26:05.629Z,14.29
2022-09-12T20:28:32.142Z,14.26
2022-09-12T20:31:02.208Z,14.27
2022-09-12T20:33:29.081Z,14.25
2022-09-12T20:36:00.726Z,14.28
2022-09-12T20:38:27.046Z,14.25
2022-09-12T20:40:53.328Z,14.27
2022-09-12T20:43:19.654Z,14.27
2022-09-12T20:45:45.933Z,14.27
2022-09-12T20:48:12.210Z,14.28
2022-09-12T20:50:38.498Z,14.28
2022-09-12T20:53:05.221Z,14.25
2022-09-12T20:55:31.501Z,14.23
2022-09-12T20:57:57.808Z,14.22
2022-09-12T21:00:24.082Z,14.20
2022-09-12T21:02:51.289Z,14.14
2022-09-12T21:05:18.046Z,14.16
2022-09-12T21:07:44.347Z,14.14
2022-09-12T21:10:10.730Z,14.09
2022-09-12T21:12:37.708Z,14.06
2022-09-12T21:15:04.139Z,14.06
2022-09-12T21:17:30.427Z,14.05
2022-09-12T21:19:56.770Z,14.01
2022-09-12T21:22:23.068Z,13.98
2022-09-12T21:24:49.353Z,13.95
2022-09-12T21:27:15.778Z,13.93
2022-09-12T21:29:42.114Z,13.86
2022-09-12T21:32:13.469Z,13.86
2022-09-12T21:34:41.698Z,13.88
2022-09-12T21:37:08.024Z,13.83
2022-09-12T21:39:34.295Z,13.81
2022-09-12T21:42:01.001Z,13.78
2022-09-12T21:44:27.334Z,13.75
2022-09-12T21:46:53.666Z,13.75
2022-09-12T21:49:20.037Z,13.74
2022-09-12T21:51:46.360Z,13.63
2022-09-12T21:54:12.704Z,13.64
2022-09-12T21:56:39.146Z,13.66
2022-09-12T21:59:05.532Z,13.61
2022-09-12T22:01:31.899Z,13.59
2022-09-12T22:03:58.615Z,13.65
2022-09-12T22:06:24.943Z,13.65
2022-09-12T22:08:51.227Z,13.69
2022-09-12T22:11:19.750Z,13.63
2022-09-12T22:13:46.185Z,13.62
2022-09-12T22:16:12.755Z,13.63
2022-09-12T22:18:39.148Z,13.60
2022-09-12T22:21:12.340Z,13.64
2022-09-12T22:23:57.300Z,13.63
2022-09-12T22:26:23.609Z,13.61
2022-09-12T22:28:50.428Z,13.60
2022-09-12T22:31:17.147Z,13.59
2022-09-12T22:33:43.575Z,13.60
2022-09-12T22:36:09.953Z,13.57
2022-09-12T22:38:36.497Z,13.53
2022-09-12T22:41:06.758Z,13.56
2022-09-12T22:43:34.078Z,13.59
2022-09-12T22:46:00.407Z,13.53
2022-09-12T22:48:26.879Z,13.50
2022-09-12T22:50:53.234Z,13.53
2022-09-12T22:53:19.562Z,13.48
2022-09-12T22:55:46.407Z,13.51
2022-09-12T22:58:12.679Z,13.46
2022-09-12T23:00:39.046Z,13.37
2022-09-12T23:03:05.416Z,13.43
2022-09-12T23:05:31.753Z,13.40
2022-09-12T23:07:58.892Z,13.34
2022-09-12T23:10:26.993Z,13.35
2022-09-12T23:12:54.813Z,13.36
2022-09-12T23:15:21.253Z,13.35
2022-09-12T23:17:47.604Z,13.31
2022-09-12T23:20:13.890Z,13.37
2022-09-12T23:22:40.186Z,13.25
2022-09-12T23:25:06.789Z,13.34
2022-09-12T23:27:33.081Z,13.34
2022-09-12T23:29:59.416Z,13.28
2022-09-12T23:32:25.764Z,13.31
2022-09-12T23:34:52.844Z,13.27
2022-09-12T23:37:21.020Z,13.31
2022-09-12T23:39:47.705Z,13.29
2022-09-12T23:42:14.010Z,13.35
2022-09-12T23:44:40.349Z,13.30
2022-09-12T23:47:06.633Z,13.32
2022-09-12T23:49:32.912Z,13.33
2022-09-12T23:51:59.292Z,13.37
2022-09-12T23:54:25.692Z,13.47
2022-09-12T23:56:52.001Z,13.49
2022-09-12T23:59:18.350Z,13.52
